Aviation Digital Data Service (ADDS)

Output produced by METARs form (1440 UTC 21 April 2015)
found at http://aviationweather.gov/adds/metars/
 
KORH 211402Z 2114/2212 25009KT 2SM BR OVC002 
     FM211500 24008KT 4SM BR OVC008 
     FM211600 24010KT P6SM BKN015 
     FM211700 26010G18KT P6SM -SHRA BKN045 
     FM212200 28008KT P6SM SCT045 
     FM220000 27005KT P6SM SCT250